Honolulu, HI (96815)

5:41 AM HST on July 29, 2016 (GMT -1000)
Allure Waikiki | | Change Station

Elev 39 ft 21.29 °N, 157.83 °W | Updated 11 minutes ago

Scattered Clouds
Scattered Clouds
78.1 °F
Feels Like 80 °F
N
15.5
Wind Variable Wind from NNE

Today
High -- | Low -- °F
--% Chance of Precip.
Yesterday
High -- | Low -- °F
Precip. -- in
Pressure 30.01 in
Visibility 10.0 miles
Clouds Few 2600 ft
Scattered Clouds 5000 ft
Scattered Clouds 6000 ft
Heat Index 80 °F
Dew Point 63 °F
Humidity 60%
Rainfall 0.00 in
Snow Depth Not available.
6:03 AM 7:11 PM
Waning Crescent, 21% visible
METAR PHNL 291453Z 06008KT 10SM FEW026 SCT050 SCT060 25/18 A3002 RMK AO2 RAB31E41 SLP163 P0000 60000 T02500183 55001
Pressure 30.01 in
Visibility 10.0 miles
Clouds Few 2600 ft
Scattered Clouds 5000 ft
Scattered Clouds 6000 ft
Heat Index 80 °F
Dew Point 63 °F
Humidity 60%
Rainfall 0.00 in
Snow Depth Not available.
6:03 AM 7:11 PM
Waning Crescent, 21% visible
METAR PHNL 291453Z 06008KT 10SM FEW026 SCT050 SCT060 25/18 A3002 RMK AO2 RAB31E41 SLP163 P0000 60000 T02500183 55001

10-Day Weather Forecast

Almanac

Astronomy

Jul. 29, 2016 Rise Set
Actual Time
Civil Twilight
Nautical Twilight
Astronomical Twilight
Moon
Length of Visible Light
Length of Day
Tomorrow will be .
, % of the Moon is Illuminated

Today's Extremes

State Highs State Lows

Community

WunderPhotos

Upload Photos

1,928,348 photos uploaded!

WunderBlog® & News

Nearby

Air Quality

  Air Quality AQ Index Pollutant
Not available.

Snow Depth

Station Depth Elevation

Earthquake Activity

City Distance Mag. Time & Date
Minimum magnitude displayed is 2.5.

Coastal Water Temperatures

Place Temperature

Stations

Nearby Weather Stations

Station Location Temp. Windchill Dew Point Humidity Wind Precip. Elev Updated Type
                   

Watches & Warnings

There are currently no watches in effect.